Terminal Aerodrome Forecast
Issued by NWS

Home | Current Version | Previous Version | Text Only | Print | Product List | Glossary On
Versions: 1 2 3 4 5 6 7 8 9 10 11 12 13 14 15 16 17 18 19 20 21 22 23 24 25 26 27 28 29 30 31 32 33
000
FTUS43 KAPX 171728
TAFPLN
TAF
KPLN 171728Z 1718/1818 30011KT P6SM SCT018 OVC045
      TEMPO 1719/1720 2SM -SN OVC018
     FM172000 31010KT 2SM -SN BKN015 OVC028
     FM180100 32008KT P6SM OVC025=

USA.gov is the U.S. government's official web portal to all federal, state and local government web resources and services.